Las Cruces, NM

1:13 AM MST on February 28, 2015 (GMT -0700)
El Paso International | Change Station
CLOSE
Current Station
Airport
Location: El Paso,
Elevation: 3917 ft
Nearby Weather Stations

Elev 3917 ft 31.81 °N, 106.38 °W | Updated 22 minutes ago

Clear
Clear
28 °F
Feels Like 21 °F
N
7
Wind Variable Wind from NNE

Today
High -- | Low -- °F
--% Chance of Precip.
Yesterday
High -- | Low -- °F
Precip. -- in
6:35 AM 6:03 PM
Waxing Gibbous, 75% visible
Pressure 29.96 in
Visibility 10.0 miles
Clouds Few 24000 ft
Scattered Clouds 30000 ft
Windchill 21 °F
Dew Point 20 °F
Humidity 72%
Rainfall 0.00 in
Snow Depth Not available.
UV 0 out of 12
Pollen 6.50 out of 12
Air Quality Not available.
Flu Activity Not available.
METAR KELP 280751Z 03006KT 10SM FEW240 SCT300 M02/M07 A2997 RMK AO2 SLP144 T10221067

More Conditions Fewer Conditions

Pressure 29.96 in
Visibility 10.0 miles
Clouds Few 24000 ft
Scattered Clouds 30000 ft
Windchill 21 °F
Dew Point 20 °F
Humidity 72%
Rainfall 0.00 in
Snow Depth Not available.
UV 0 out of 12
Pollen 6.50 out of 12
Air Quality Not available.
Flu Activity Not available.
METAR KELP 280751Z 03006KT 10SM FEW240 SCT300 M02/M07 A2997 RMK AO2 SLP144 T10221067

More Conditions Fewer Conditions

10-Day Weather Forecast

Almanac

Astronomy

Feb. 28, 2015 Rise Set
Actual Time
Civil Twilight
Nautical Twilight
Astronomical Twilight
Moon
Length of Visible Light
Length of Day
Tomorrow will be .
, % of the Moon is Illuminated

Today's Extremes

State Highs State Lows

Community

WunderPhotos

Upload Photos

1,800,984 photos uploaded!

WunderBlogs® & News

Nearby

Air Quality

  Air Quality AQ Index Pollutant
Not available.

Snow Depth

Station Depth Elevation

Earthquake Activity

City Distance Mag. Time & Date
Minimum magnitude displayed is 2.5.

Coastal Water Temperatures

Place Temperature

Nearby Weather Stations